createdAt,value
2017-09-12T00:01:49.679Z,65.80
2017-09-12T00:04:16.818Z,65.80
2017-09-12T00:06:43.974Z,65.80
2017-09-12T00:09:11.132Z,65.80
2017-09-12T00:11:38.271Z,65.80
2017-09-12T00:14:05.427Z,65.80
2017-09-12T00:16:32.593Z,65.80
2017-09-12T00:18:59.738Z,65.80
2017-09-12T00:21:26.905Z,65.80
2017-09-12T00:23:54.195Z,65.80
2017-09-12T00:26:22.098Z,65.90
2017-09-12T00:28:49.259Z,65.80
2017-09-12T00:31:16.416Z,65.80
2017-09-12T00:33:43.558Z,65.80
2017-09-12T00:36:10.749Z,65.80
2017-09-12T00:38:37.894Z,65.80
2017-09-12T00:41:05.044Z,65.80
2017-09-12T00:43:32.205Z,65.80
2017-09-12T00:45:59.364Z,65.80
2017-09-12T00:48:26.519Z,65.80
2017-09-12T00:50:53.657Z,65.80
2017-09-12T00:53:20.798Z,65.80
2017-09-12T00:55:47.933Z,65.80
2017-09-12T00:58:15.069Z,65.90
2017-09-12T01:00:42.206Z,65.80
2017-09-12T01:03:09.368Z,65.80
2017-09-12T01:05:36.532Z,65.90
2017-09-12T01:08:03.670Z,65.90
2017-09-12T01:10:30.828Z,65.80
2017-09-12T01:12:57.966Z,65.90
2017-09-12T01:15:25.121Z,65.80
2017-09-12T01:17:52.254Z,65.80
2017-09-12T01:20:19.390Z,65.80
2017-09-12T01:22:46.548Z,65.90
2017-09-12T01:25:13.690Z,65.90
2017-09-12T01:27:40.863Z,65.90
2017-09-12T01:30:08.020Z,65.90
2017-09-12T01:32:35.171Z,65.90
2017-09-12T01:35:02.301Z,65.90
2017-09-12T01:37:29.456Z,65.90
2017-09-12T01:39:56.593Z,65.90
2017-09-12T01:42:23.752Z,65.90
2017-09-12T01:44:50.909Z,65.90
2017-09-12T01:47:18.063Z,65.90
2017-09-12T01:49:45.234Z,65.90
2017-09-12T01:52:12.374Z,65.90
2017-09-12T01:54:39.533Z,65.90
2017-09-12T01:57:06.674Z,65.90
2017-09-12T01:59:33.805Z,65.90
2017-09-12T02:02:00.963Z,65.90
2017-09-12T02:04:28.111Z,65.90
2017-09-12T02:06:55.257Z,65.90
2017-09-12T02:09:22.397Z,65.90
2017-09-12T02:11:49.547Z,65.90
2017-09-12T02:14:16.704Z,65.90
2017-09-12T02:16:43.863Z,65.90
2017-09-12T02:19:11.006Z,65.90
2017-09-12T02:21:38.163Z,65.90
2017-09-12T02:24:05.301Z,65.90
2017-09-12T02:26:32.448Z,65.90
2017-09-12T02:28:59.589Z,65.90
2017-09-12T02:31:26.740Z,65.90
2017-09-12T02:33:53.875Z,65.90
2017-09-12T02:36:21.031Z,65.90
2017-09-12T02:38:48.189Z,65.90
2017-09-12T02:41:15.352Z,65.90
2017-09-12T02:43:42.497Z,65.90
2017-09-12T02:46:09.634Z,65.90
2017-09-12T02:48:36.768Z,65.90
2017-09-12T02:51:03.919Z,65.90
2017-09-12T02:53:31.077Z,65.90
2017-09-12T02:55:58.241Z,65.90
2017-09-12T02:58:25.393Z,65.90
2017-09-12T03:00:52.551Z,65.90
2017-09-12T03:03:19.760Z,65.90
2017-09-12T03:05:46.897Z,65.90
2017-09-12T03:08:14.051Z,65.90
2017-09-12T03:10:41.193Z,65.90
2017-09-12T03:13:08.361Z,65.90
2017-09-12T03:15:35.525Z,65.90
2017-09-12T03:18:02.669Z,65.90
2017-09-12T03:20:29.804Z,65.90
2017-09-12T03:22:56.956Z,65.90
2017-09-12T03:25:24.097Z,65.90
2017-09-12T03:27:51.250Z,65.90
2017-09-12T03:30:18.548Z,65.90
2017-09-12T03:32:45.706Z,65.90
2017-09-12T03:35:12.854Z,65.90
2017-09-12T03:37:39.997Z,65.90
2017-09-12T03:40:07.151Z,65.90
2017-09-12T03:42:34.325Z,65.90
2017-09-12T03:45:01.475Z,65.90
2017-09-12T03:47:28.632Z,65.90
2017-09-12T03:49:55.773Z,65.90
2017-09-12T03:52:22.923Z,65.90
2017-09-12T03:54:50.090Z,65.90
2017-09-12T03:57:17.229Z,65.90
2017-09-12T03:59:44.360Z,65.90
2017-09-12T04:02:11.498Z,65.90
2017-09-12T04:04:38.656Z,65.90
2017-09-12T04:07:05.804Z,65.90
2017-09-12T04:09:32.960Z,65.90
2017-09-12T04:12:00.097Z,65.90
2017-09-12T04:14:27.248Z,65.90
2017-09-12T04:16:54.403Z,65.90
2017-09-12T04:19:21.541Z,65.90
2017-09-12T04:21:48.708Z,65.90
2017-09-12T04:24:15.883Z,65.90
2017-09-12T04:26:43.048Z,65.90
2017-09-12T04:29:10.197Z,65.90
2017-09-12T04:31:37.352Z,65.90
2017-09-12T04:34:04.515Z,65.90
2017-09-12T04:36:31.673Z,65.90
2017-09-12T04:38:58.817Z,65.90
2017-09-12T04:41:25.962Z,65.90
2017-09-12T04:43:53.110Z,66.00
2017-09-12T04:46:20.250Z,65.90
2017-09-12T04:48:47.394Z,65.90
2017-09-12T04:51:14.565Z,65.90
2017-09-12T04:53:41.705Z,65.90
2017-09-12T04:56:09.610Z,66.00
2017-09-12T04:58:36.749Z,65.90
2017-09-12T05:01:03.904Z,65.90
2017-09-12T05:03:31.045Z,65.90
2017-09-12T05:05:58.200Z,66.00
2017-09-12T05:08:25.438Z,66.00
2017-09-12T05:10:53.345Z,66.00
2017-09-12T05:13:20.495Z,66.00
2017-09-12T05:15:47.642Z,65.90
2017-09-12T05:18:14.786Z,65.90
2017-09-12T05:20:42.149Z,66.00
2017-09-12T05:23:09.293Z,66.00
2017-09-12T05:25:36.451Z,66.00
2017-09-12T05:28:03.593Z,66.00
2017-09-12T05:30:30.738Z,66.00
2017-09-12T05:32:57.895Z,66.00
2017-09-12T05:35:25.034Z,66.00
2017-09-12T05:37:52.179Z,66.00
2017-09-12T05:40:19.337Z,66.00
2017-09-12T05:42:46.480Z,66.00
2017-09-12T05:45:13.640Z,66.00
2017-09-12T05:47:40.786Z,66.00
2017-09-12T05:50:07.953Z,66.00
2017-09-12T05:52:35.107Z,66.00
2017-09-12T05:55:02.250Z,66.00
2017-09-12T05:57:29.404Z,66.00
2017-09-12T05:59:56.552Z,66.00
2017-09-12T06:02:23.703Z,66.00
2017-09-12T06:04:50.856Z,66.00
2017-09-12T06:07:17.994Z,66.00
2017-09-12T06:09:45.149Z,66.00
2017-09-12T06:12:12.290Z,66.00
2017-09-12T06:14:39.430Z,66.00
2017-09-12T06:17:06.585Z,66.00
2017-09-12T06:19:33.739Z,66.00
2017-09-12T06:22:01.176Z,66.00
2017-09-12T06:24:28.317Z,66.00
2017-09-12T06:26:56.225Z,66.00
2017-09-12T06:29:23.361Z,66.00
2017-09-12T06:31:50.502Z,66.00
2017-09-12T06:34:17.663Z,66.00
2017-09-12T06:36:44.809Z,66.00
2017-09-12T06:39:11.984Z,66.00
2017-09-12T06:41:39.141Z,66.00
2017-09-12T06:44:06.306Z,66.00
2017-09-12T06:46:33.459Z,66.00
2017-09-12T06:49:00.622Z,66.00
2017-09-12T06:51:27.791Z,66.00
2017-09-12T06:53:54.937Z,66.00
2017-09-12T06:56:22.081Z,66.00
2017-09-12T06:58:49.236Z,66.00
2017-09-12T07:01:16.386Z,66.00
2017-09-12T07:03:43.544Z,66.00
2017-09-12T07:06:10.685Z,66.00
2017-09-12T07:08:37.840Z,66.00
2017-09-12T07:11:05.000Z,66.00
2017-09-12T07:13:32.160Z,66.00
2017-09-12T07:15:59.302Z,66.00
2017-09-12T07:18:26.440Z,66.00
2017-09-12T07:20:53.581Z,66.00
2017-09-12T07:23:20.726Z,66.00
2017-09-12T07:25:47.888Z,66.00
2017-09-12T07:28:15.039Z,66.00
2017-09-12T07:30:42.173Z,66.00
2017-09-12T07:33:09.329Z,66.00
2017-09-12T07:35:36.484Z,66.00
2017-09-12T07:38:03.630Z,66.00
2017-09-12T07:40:30.760Z,66.00
2017-09-12T07:42:57.914Z,66.00
2017-09-12T07:45:25.071Z,66.00
2017-09-12T07:47:52.214Z,66.00
2017-09-12T07:50:19.354Z,66.00
2017-09-12T07:52:46.508Z,66.00
2017-09-12T07:55:13.650Z,66.00
2017-09-12T07:57:40.793Z,66.00
2017-09-12T08:00:07.939Z,66.00
2017-09-12T08:02:35.080Z,66.10
2017-09-12T08:05:02.235Z,66.00
2017-09-12T08:07:29.388Z,66.00
2017-09-12T08:09:56.561Z,66.00
2017-09-12T08:12:23.744Z,66.10
2017-09-12T08:14:50.910Z,66.10
2017-09-12T08:17:18.047Z,66.00
2017-09-12T08:19:45.199Z,66.10
2017-09-12T08:22:12.340Z,66.00
2017-09-12T08:24:39.491Z,66.00
2017-09-12T08:27:06.630Z,66.00
2017-09-12T08:29:33.788Z,66.00
2017-09-12T08:32:00.930Z,66.00
2017-09-12T08:34:28.096Z,66.00
2017-09-12T08:36:55.233Z,66.00
2017-09-12T08:39:22.409Z,66.10
2017-09-12T08:41:49.576Z,66.10
2017-09-12T08:44:16.742Z,66.10
2017-09-12T08:46:43.886Z,66.10
2017-09-12T08:49:11.025Z,66.00
2017-09-12T08:51:38.184Z,66.00
2017-09-12T08:54:05.339Z,66.00
2017-09-12T08:56:32.473Z,66.00
2017-09-12T08:58:59.617Z,66.10
2017-09-12T09:01:26.779Z,66.00
2017-09-12T09:03:53.945Z,66.10
2017-09-12T09:06:21.086Z,66.10
2017-09-12T09:08:48.252Z,66.70
2017-09-12T09:11:15.393Z,66.00
2017-09-12T09:13:42.538Z,66.00
2017-09-12T09:16:09.685Z,66.10
2017-09-12T09:18:36.839Z,66.00
2017-09-12T09:21:03.988Z,66.00
2017-09-12T09:23:31.142Z,66.00
2017-09-12T09:25:58.296Z,66.00
2017-09-12T09:28:25.451Z,66.00
2017-09-12T09:30:52.589Z,66.00
2017-09-12T09:33:19.721Z,66.10
2017-09-12T09:35:46.857Z,66.10
2017-09-12T09:38:14.012Z,66.00
2017-09-12T09:40:41.176Z,66.10
2017-09-12T09:43:08.336Z,66.00
2017-09-12T09:45:35.477Z,66.00
2017-09-12T09:48:02.613Z,66.10
2017-09-12T09:50:29.775Z,66.10
2017-09-12T09:52:56.934Z,66.10
2017-09-12T09:55:24.070Z,66.10
2017-09-12T09:57:51.206Z,66.10
2017-09-12T10:00:18.357Z,66.00
2017-09-12T10:02:45.510Z,66.10
2017-09-12T10:05:12.655Z,66.10
2017-09-12T10:07:39.820Z,66.10
2017-09-12T10:10:06.972Z,66.10
2017-09-12T10:12:34.122Z,66.10
2017-09-12T10:15:01.284Z,66.10
2017-09-12T10:17:28.440Z,66.10
2017-09-12T10:19:55.575Z,66.10
2017-09-12T10:22:22.732Z,66.10
2017-09-12T10:24:49.878Z,66.00
2017-09-12T10:27:17.024Z,66.00
2017-09-12T10:29:44.531Z,66.10
2017-09-12T10:32:12.513Z,66.40
2017-09-12T10:34:39.673Z,66.10
2017-09-12T10:37:06.828Z,66.10
2017-09-12T10:39:33.998Z,66.10
2017-09-12T10:42:01.139Z,66.10
2017-09-12T10:44:28.314Z,66.10
2017-09-12T10:46:55.459Z,66.10
2017-09-12T10:49:22.616Z,66.10
2017-09-12T10:51:49.776Z,66.10
2017-09-12T10:54:16.905Z,66.10
2017-09-12T10:56:44.058Z,66.00
2017-09-12T10:59:11.220Z,66.10
2017-09-12T11:01:38.352Z,66.10
2017-09-12T11:04:05.493Z,66.10
2017-09-12T11:06:32.629Z,66.10
2017-09-12T11:08:59.769Z,66.10
2017-09-12T11:11:26.925Z,66.10
2017-09-12T11:13:54.088Z,66.10
2017-09-12T11:16:21.265Z,66.10
2017-09-12T11:18:48.428Z,66.10
2017-09-12T11:21:15.599Z,66.10
2017-09-12T11:23:42.771Z,66.10
2017-09-12T11:26:09.922Z,66.10
2017-09-12T11:28:37.844Z,66.10
2017-09-12T11:31:04.995Z,66.10
2017-09-12T11:33:32.134Z,66.10
2017-09-12T11:35:59.273Z,66.10
2017-09-12T11:38:26.417Z,66.10
2017-09-12T11:40:53.579Z,66.10
2017-09-12T11:43:20.717Z,66.10
2017-09-12T11:45:47.858Z,66.10
2017-09-12T11:48:15.010Z,66.10
2017-09-12T11:50:42.158Z,66.10
2017-09-12T11:53:09.305Z,66.10
2017-09-12T11:55:36.447Z,66.10
2017-09-12T11:58:03.594Z,66.10
2017-09-12T12:00:30.733Z,66.10
2017-09-12T12:02:57.883Z,66.10
2017-09-12T12:05:25.025Z,66.10
2017-09-12T12:07:52.180Z,66.10
2017-09-12T12:10:19.318Z,66.10
2017-09-12T12:12:46.467Z,66.70
2017-09-12T12:15:13.633Z,66.10
2017-09-12T12:17:40.806Z,66.10
2017-09-12T12:20:07.988Z,66.10
2017-09-12T12:22:35.151Z,66.10
2017-09-12T12:25:02.290Z,66.10
2017-09-12T12:27:29.448Z,66.10
2017-09-12T12:29:56.598Z,66.10
2017-09-12T12:32:23.894Z,66.10
2017-09-12T12:34:51.034Z,66.10
2017-09-12T12:37:18.955Z,66.20
2017-09-12T12:39:46.112Z,66.10
2017-09-12T12:42:13.253Z,66.10
2017-09-12T12:44:40.420Z,66.10
2017-09-12T12:47:07.585Z,66.10
2017-09-12T12:49:34.768Z,66.00
2017-09-12T12:52:01.929Z,66.10
2017-09-12T12:54:29.093Z,66.10
2017-09-12T12:56:56.237Z,66.10
2017-09-12T12:59:23.377Z,66.10
2017-09-12T13:01:50.522Z,66.10
2017-09-12T13:04:17.657Z,66.10
2017-09-12T13:06:44.789Z,66.10
2017-09-12T13:09:11.948Z,66.10
2017-09-12T13:11:39.106Z,66.10
2017-09-12T13:14:06.250Z,66.10
2017-09-12T13:16:33.410Z,66.10
2017-09-12T13:19:00.568Z,66.10
2017-09-12T13:21:27.713Z,66.10
2017-09-12T13:23:54.862Z,66.10
2017-09-12T13:26:22.025Z,66.10
2017-09-12T13:28:49.161Z,66.10
2017-09-12T13:31:16.298Z,66.10
2017-09-12T13:33:43.495Z,66.10
2017-09-12T13:36:10.658Z,66.10
2017-09-12T13:38:37.794Z,66.10
2017-09-12T13:41:04.952Z,66.10
2017-09-12T13:43:32.116Z,66.10
2017-09-12T13:45:59.290Z,66.10
2017-09-12T13:48:27.223Z,66.30
2017-09-12T13:50:54.362Z,66.10
2017-09-12T13:53:23.015Z,66.10
2017-09-12T13:55:50.207Z,66.10
2017-09-12T13:58:18.236Z,66.10
2017-09-12T14:00:45.410Z,66.10
2017-09-12T14:03:12.558Z,66.10
2017-09-12T14:05:39.719Z,66.10
2017-09-12T14:08:06.879Z,66.10
2017-09-12T14:10:34.040Z,66.10
2017-09-12T14:13:01.201Z,66.10
2017-09-12T14:15:28.359Z,66.10
2017-09-12T14:17:55.861Z,66.10
2017-09-12T14:20:23.650Z,66.10
2017-09-12T14:22:50.898Z,66.10
2017-09-12T14:25:18.577Z,66.10
2017-09-12T14:27:46.712Z,66.10
2017-09-12T14:30:13.873Z,66.10
2017-09-12T14:32:41.295Z,66.10
2017-09-12T14:35:09.376Z,66.20
2017-09-12T14:37:36.518Z,66.10
2017-09-12T14:40:04.447Z,66.20
2017-09-12T14:42:31.614Z,66.10
2017-09-12T14:44:58.775Z,66.10
2017-09-12T14:47:25.924Z,66.10
2017-09-12T14:49:53.074Z,66.10
2017-09-12T14:52:20.215Z,66.10
2017-09-12T14:54:47.381Z,66.10
2017-09-12T14:57:14.539Z,66.70
2017-09-12T14:59:41.693Z,66.10
2017-09-12T15:02:08.852Z,66.10
2017-09-12T15:04:35.982Z,66.10
2017-09-12T15:07:03.129Z,66.10
2017-09-12T15:09:30.299Z,66.10
2017-09-12T15:11:57.434Z,66.10
2017-09-12T15:14:24.585Z,66.10
2017-09-12T15:16:51.771Z,66.10
2017-09-12T15:19:18.938Z,66.10
2017-09-12T15:21:46.103Z,66.10
2017-09-12T15:24:13.278Z,66.10
2017-09-12T15:26:41.184Z,66.20
2017-09-12T15:29:08.349Z,66.00
2017-09-12T15:31:35.485Z,66.10
2017-09-12T15:34:02.628Z,66.10
2017-09-12T15:36:29.769Z,66.10
2017-09-12T15:38:56.927Z,66.10
2017-09-12T15:41:24.087Z,66.10
2017-09-12T15:43:51.244Z,66.10
2017-09-12T15:46:18.403Z,66.50
2017-09-12T15:48:45.559Z,66.10
2017-09-12T15:51:12.713Z,66.10
2017-09-12T15:53:39.875Z,66.10
2017-09-12T15:56:07.036Z,66.10
2017-09-12T15:58:34.196Z,66.10
2017-09-12T16:01:01.356Z,66.10
2017-09-12T16:03:28.633Z,66.10
2017-09-12T16:05:55.791Z,66.10
2017-09-12T16:08:23.790Z,66.10
2017-09-12T16:10:51.730Z,66.20
2017-09-12T16:13:18.870Z,66.10
2017-09-12T16:15:46.017Z,66.10
2017-09-12T16:18:13.157Z,66.10
2017-09-12T16:20:40.349Z,66.10
2017-09-12T16:23:07.640Z,66.10
2017-09-12T16:25:35.559Z,66.20
2017-09-12T16:28:02.721Z,66.20
2017-09-12T16:30:29.884Z,66.10
2017-09-12T16:32:57.040Z,66.10
2017-09-12T16:35:24.205Z,66.80
2017-09-12T16:37:51.345Z,66.10
2017-09-12T16:40:18.509Z,66.10
2017-09-12T16:42:45.661Z,66.20
2017-09-12T16:45:12.828Z,66.10
2017-09-12T16:47:39.978Z,66.20
2017-09-12T16:50:07.140Z,66.20
2017-09-12T16:52:34.281Z,66.20
2017-09-12T16:55:01.421Z,66.20
2017-09-12T16:57:28.580Z,66.20
2017-09-12T16:59:55.735Z,66.20
2017-09-12T17:02:22.882Z,66.20
2017-09-12T17:04:50.044Z,66.20
2017-09-12T17:07:17.209Z,66.20
2017-09-12T17:09:44.372Z,66.20
2017-09-12T17:12:11.541Z,66.20
2017-09-12T17:14:40.030Z,66.20
2017-09-12T17:17:07.184Z,66.20
2017-09-12T17:19:34.320Z,66.20
2017-09-12T17:22:01.485Z,66.20
2017-09-12T17:24:28.633Z,66.20
2017-09-12T17:26:55.779Z,66.20
2017-09-12T17:29:23.101Z,66.20
2017-09-12T17:31:50.254Z,66.20
2017-09-12T17:34:17.427Z,66.20
2017-09-12T17:36:44.615Z,66.20
2017-09-12T17:39:12.537Z,66.10
2017-09-12T17:41:39.711Z,66.10
2017-09-12T17:44:07.006Z,66.20
2017-09-12T17:46:34.182Z,66.20
2017-09-12T17:49:01.362Z,66.20
2017-09-12T17:51:29.004Z,66.20
2017-09-12T17:53:57.157Z,66.30
2017-09-12T17:56:24.310Z,66.10
2017-09-12T17:58:52.976Z,66.20
2017-09-12T18:01:21.464Z,66.20
2017-09-12T18:03:49.313Z,66.20
2017-09-12T18:06:17.824Z,66.20
2017-09-12T18:08:46.552Z,66.20
2017-09-12T18:11:15.160Z,66.20
2017-09-12T18:13:43.907Z,66.20
2017-09-12T18:16:12.905Z,66.20
2017-09-12T18:18:41.226Z,66.20
2017-09-12T18:21:09.983Z,66.20
2017-09-12T18:23:38.335Z,66.20
2017-09-12T18:26:06.473Z,66.20
2017-09-12T18:28:33.681Z,66.20
2017-09-12T18:31:01.337Z,66.20
2017-09-12T18:33:29.824Z,66.20
2017-09-12T18:35:58.094Z,66.20
2017-09-12T18:38:25.614Z,66.20
2017-09-12T18:40:54.574Z,66.20
2017-09-12T18:43:23.198Z,66.20
2017-09-12T18:45:52.061Z,66.20
2017-09-12T18:48:21.186Z,66.20
2017-09-12T18:50:49.752Z,66.10
2017-09-12T18:53:17.888Z,66.20
2017-09-12T18:55:46.218Z,66.20
2017-09-12T18:58:15.625Z,66.10
2017-09-12T19:00:43.292Z,66.20
2017-09-12T19:03:11.687Z,66.20
2017-09-12T19:05:39.829Z,66.20
2017-09-12T19:08:07.973Z,66.20
2017-09-12T19:10:36.627Z,66.20
2017-09-12T19:13:05.631Z,66.20
2017-09-12T19:15:34.185Z,66.10
2017-09-12T19:18:03.347Z,66.20
2017-09-12T19:20:32.121Z,66.20
2017-09-12T19:23:01.389Z,66.30
2017-09-12T19:25:30.842Z,66.10
2017-09-12T19:27:59.797Z,66.20
2017-09-12T19:30:28.428Z,66.20
2017-09-12T19:32:57.617Z,66.20
2017-09-12T19:35:26.442Z,66.10
2017-09-12T19:37:55.702Z,66.20
2017-09-12T19:40:25.288Z,66.30
2017-09-12T19:42:53.792Z,66.10
2017-09-12T19:45:22.761Z,66.20
2017-09-12T19:47:51.335Z,66.10
2017-09-12T19:50:20.037Z,66.20
2017-09-12T19:52:49.665Z,66.30
2017-09-12T19:55:19.280Z,66.20
2017-09-12T19:57:47.878Z,66.20
2017-09-12T20:00:16.079Z,66.10
2017-09-12T20:02:44.512Z,66.20
2017-09-12T20:05:13.097Z,66.10
2017-09-12T20:07:41.297Z,66.10
2017-09-12T20:10:10.019Z,66.10
2017-09-12T20:12:37.894Z,66.20
2017-09-12T20:15:05.174Z,66.20
2017-09-12T20:17:32.353Z,66.10
2017-09-12T20:19:59.506Z,66.10
2017-09-12T20:22:26.654Z,66.20
2017-09-12T20:24:53.819Z,66.10
2017-09-12T20:27:20.984Z,66.20
2017-09-12T20:29:48.149Z,66.20
2017-09-12T20:32:15.320Z,66.20
2017-09-12T20:34:42.683Z,66.20
2017-09-12T20:37:09.830Z,66.80
2017-09-12T20:39:36.991Z,66.20
2017-09-12T20:42:04.143Z,66.10
2017-09-12T20:44:31.291Z,66.20
2017-09-12T20:46:58.463Z,66.20
2017-09-12T20:49:25.604Z,66.10
2017-09-12T20:51:52.764Z,66.10
2017-09-12T20:54:19.927Z,66.20
2017-09-12T20:56:47.088Z,66.20
2017-09-12T20:59:14.233Z,66.20
2017-09-12T21:01:41.396Z,66.10
2017-09-12T21:04:08.550Z,66.10
2017-09-12T21:06:35.697Z,66.20
2017-09-12T21:09:02.866Z,66.20
2017-09-12T21:11:30.025Z,66.20
2017-09-12T21:13:57.173Z,66.10
2017-09-12T21:16:24.312Z,66.10
2017-09-12T21:18:51.453Z,66.10
2017-09-12T21:21:18.602Z,66.10
2017-09-12T21:23:45.783Z,66.20
2017-09-12T21:26:12.931Z,66.20
2017-09-12T21:28:40.099Z,66.10
2017-09-12T21:31:07.256Z,66.10
2017-09-12T21:33:34.412Z,66.10
2017-09-12T21:36:01.571Z,66.10
2017-09-12T21:38:28.718Z,66.10
2017-09-12T21:40:55.886Z,66.10
2017-09-12T21:43:23.049Z,66.10
2017-09-12T21:45:50.214Z,66.10
2017-09-12T21:48:17.395Z,66.10
2017-09-12T21:50:44.546Z,66.10
2017-09-12T21:53:11.712Z,66.10
2017-09-12T21:55:38.858Z,66.10
2017-09-12T21:58:06.005Z,66.10
2017-09-12T22:00:33.166Z,66.20
2017-09-12T22:03:00.324Z,66.10
2017-09-12T22:05:27.480Z,66.10
2017-09-12T22:07:54.629Z,66.10
2017-09-12T22:10:21.819Z,66.10
2017-09-12T22:12:49.744Z,66.10
2017-09-12T22:15:16.920Z,66.10
2017-09-12T22:17:44.066Z,66.10
2017-09-12T22:20:11.210Z,66.20
2017-09-12T22:22:38.350Z,66.10
2017-09-12T22:25:05.505Z,66.10
2017-09-12T22:27:32.665Z,66.20
2017-09-12T22:29:59.808Z,66.20
2017-09-12T22:32:26.953Z,66.10
2017-09-12T22:34:54.098Z,66.10
2017-09-12T22:37:21.240Z,66.10
2017-09-12T22:39:48.386Z,66.10
2017-09-12T22:42:15.539Z,66.10
2017-09-12T22:44:42.691Z,66.10
2017-09-12T22:47:09.828Z,66.10
2017-09-12T22:49:36.987Z,66.10
2017-09-12T22:52:04.144Z,66.10
2017-09-12T22:54:31.281Z,66.10
2017-09-12T22:56:58.436Z,66.10
2017-09-12T22:59:25.592Z,66.20
2017-09-12T23:01:52.749Z,66.10
2017-09-12T23:04:19.912Z,66.10
2017-09-12T23:06:47.068Z,66.10
2017-09-12T23:09:14.205Z,66.10
2017-09-12T23:11:41.346Z,66.10
2017-09-12T23:14:08.481Z,66.10
2017-09-12T23:16:35.637Z,66.10
2017-09-12T23:19:02.791Z,66.10
2017-09-12T23:21:29.940Z,66.10
2017-09-12T23:23:57.077Z,66.10
2017-09-12T23:26:24.218Z,66.10
2017-09-12T23:28:51.376Z,66.10
2017-09-12T23:31:18.540Z,66.00
2017-09-12T23:33:45.703Z,66.10
2017-09-12T23:36:12.848Z,66.00
2017-09-12T23:38:39.991Z,66.00
2017-09-12T23:41:07.129Z,66.00
2017-09-12T23:43:34.278Z,66.00
2017-09-12T23:46:01.413Z,66.00
2017-09-12T23:48:28.568Z,66.00
2017-09-12T23:50:55.706Z,66.10
2017-09-12T23:53:23.030Z,66.00
2017-09-12T23:55:50.953Z,66.10
2017-09-12T23:58:18.111Z,66.00
